Time;durP1;ratioP1;P1;durP2;ratioP2;P2;SDS_P1;SDS_P2;PMS_P1;PMS_P2;Temp;Humidity;BMP_temperature;BMP_pressure;BME280_temperature;BME280_humidity;BME280_pressure;Samples;Min_cycle;Max_cycle;Signal;HPM_P1;HPM_P2
2022/01/31 04:58:08;;;;;;;1.00;1.00;;;1.00;99.90;;;;;;5723089;23;20254;-72
2022/01/31 05:00:35;;;;;;;1.17;1.17;;;1.00;99.90;;;;;;4956408;29;20252;-72
2022/01/31 05:03:08;;;;;;;1.00;1.00;;;1.10;99.90;;;;;;4956623;29;20228;-72
2022/01/31 05:05:35;;;;;;;1.00;1.00;;;1.10;99.90;;;;;;4956636;29;20195;-73
2022/01/31 05:08:02;;;;;;;0.98;0.98;;;1.10;99.90;;;;;;4956104;29;20707;-73
2022/01/31 05:10:29;;;;;;;0.90;0.90;;;1.10;99.90;;;;;;4956039;29;20758;-73
2022/01/31 05:12:55;;;;;;;0.77;0.77;;;1.10;99.90;;;;;;4978941;23;20691;-71
2022/01/31 05:15:24;;;;;;;1.02;1.02;;;1.20;99.90;;;;;;4956367;29;20208;-70
2022/01/31 05:17:50;;;;;;;0.85;0.85;;;1.20;99.90;;;;;;4956329;29;20782;-70
2022/01/31 05:20:17;;;;;;;0.85;0.85;;;1.20;99.90;;;;;;4956535;29;20239;-70
2022/01/31 05:22:44;;;;;;;1.00;1.00;;;1.20;99.90;;;;;;4956411;29;20255;-70
2022/01/31 05:25:11;;;;;;;1.00;1.00;;;1.20;99.90;;;;;;4956479;29;20208;-69
2022/01/31 05:27:38;;;;;;;0.70;0.70;;;1.20;99.90;;;;;;4956464;29;20298;-68
2022/01/31 05:30:06;;;;;;;0.88;0.88;;;1.20;99.90;;;;;;4956438;29;20204;-68
2022/01/31 05:32:34;;;;;;;0.80;0.80;;;1.20;99.90;;;;;;4956151;28;20235;-69
2022/01/31 05:35:04;;;;;;;0.73;0.73;;;1.20;99.90;;;;;;4956006;29;20291;-68
2022/01/31 05:37:31;;;;;;;0.70;0.70;;;1.20;99.90;;;;;;4956207;28;20204;-67
2022/01/31 05:39:58;;;;;;;0.80;0.80;;;1.30;99.90;;;;;;4956354;29;20303;-67
2022/01/31 05:42:25;;;;;;;0.80;0.80;;;1.30;99.90;;;;;;4955834;29;20255;-66
2022/01/31 05:44:52;;;;;;;0.80;0.80;;;1.30;99.90;;;;;;4955854;29;20239;-67
2022/01/31 05:47:19;;;;;;;0.80;0.80;;;1.30;99.90;;;;;;4955782;29;20248;-65
2022/01/31 05:49:48;;;;;;;0.88;0.80;;;1.30;99.90;;;;;;4955800;29;20615;-66
2022/01/31 05:52:14;;;;;;;2.05;1.38;;;1.40;99.90;;;;;;4957542;29;20645;-67
2022/01/31 05:54:42;;;;;;;1.30;1.30;;;1.40;99.90;;;;;;4956561;28;20208;-66
2022/01/31 05:57:10;;;;;;;1.60;1.50;;;1.50;99.90;;;;;;4956272;29;20204;-65
2022/01/31 05:59:41;;;;;;;1.88;1.77;;;1.50;99.90;;;;;;4955690;29;20243;-66
2022/01/31 06:02:08;;;;;;;1.85;1.75;;;1.60;99.90;;;;;;4955958;29;20307;-66
2022/01/31 06:04:35;;;;;;;4.72;2.50;;;1.60;99.90;;;;;;4955978;29;20210;-66
2022/01/31 06:07:04;;;;;;;8.27;3.00;;;1.60;99.90;;;;;;4955855;29;20203;-65
2022/01/31 06:09:32;;;;;;;2.50;1.92;;;1.70;99.90;;;;;;4955838;29;20208;-66
2022/01/31 06:12:01;;;;;;;2.55;2.15;;;1.80;99.90;;;;;;4955505;29;20263;-66
2022/01/31 06:14:28;;;;;;;2.83;2.00;;;1.90;99.90;;;;;;4955772;29;20204;-64
2022/01/31 06:16:55;;;;;;;3.47;1.42;;;1.90;99.90;;;;;;4955700;29;20210;-64
2022/01/31 06:19:22;;;;;;;2.53;1.60;;;2.00;99.90;;;;;;4955706;29;20200;-65
2022/01/31 06:21:50;;;;;;;3.65;2.13;;;2.00;99.90;;;;;;4955739;29;20203;-65
2022/01/31 06:24:18;;;;;;;1.70;1.60;;;2.10;99.90;;;;;;4955739;29;20218;-65
2022/01/31 06:26:45;;;;;;;3.17;1.63;;;2.10;99.90;;;;;;4955629;29;20276;-67
2022/01/31 06:29:12;;;;;;;2.10;1.90;;;2.20;99.90;;;;;;4955592;29;20235;-67
2022/01/31 06:31:39;;;;;;;3.55;2.15;;;2.20;99.90;;;;;;4955518;29;20223;-67
2022/01/31 06:34:06;;;;;;;2.58;1.80;;;2.20;99.90;;;;;;4955152;29;20235;-67
2022/01/31 06:36:33;;;;;;;3.05;2.03;;;2.20;99.90;;;;;;4955516;29;20231;-67
2022/01/31 06:39:00;;;;;;;2.95;1.50;;;2.30;99.90;;;;;;4955536;29;20295;-67
2022/01/31 06:41:28;;;;;;;1.42;1.33;;;2.30;99.90;;;;;;4955502;29;20223;-67
2022/01/31 06:43:56;;;;;;;3.10;2.08;;;2.30;99.90;;;;;;4955216;28;20224;-67
2022/01/31 06:46:23;;;;;;;2.10;1.30;;;2.40;99.90;;;;;;4956507;29;20212;-66
2022/01/31 06:48:50;;;;;;;2.00;1.90;;;2.40;99.90;;;;;;4955809;29;20204;-66
2022/01/31 06:51:17;;;;;;;2.13;1.92;;;2.40;99.90;;;;;;4955039;29;20215;-66
2022/01/31 06:53:47;;;;;;;1.92;1.70;;;2.40;99.90;;;;;;4955334;29;20267;-66
2022/01/31 06:56:15;;;;;;;1.50;1.40;;;2.50;99.90;;;;;;4955478;29;20188;-66
2022/01/31 06:58:43;;;;;;;2.35;1.60;;;2.50;99.90;;;;;;4955204;29;20204;-67
2022/01/31 07:01:10;;;;;;;3.17;1.52;;;2.50;99.90;;;;;;4955398;29;20232;-67
2022/01/31 07:03:37;;;;;;;2.70;2.10;;;2.50;99.90;;;;;;4955206;29;20224;-66
2022/01/31 07:06:05;;;;;;;1.92;1.83;;;2.60;99.90;;;;;;4955922;28;20662;-66
2022/01/31 07:08:31;;;;;;;4.32;1.92;;;2.60;99.90;;;;;;4959173;29;20239;-66
2022/01/31 07:10:58;;;;;;;1.63;1.63;;;2.60;99.90;;;;;;4959042;29;20303;-66
2022/01/31 07:13:36;;;;;;;3.58;2.13;;;2.60;99.90;;;;;;4958529;29;20255;-66
2022/01/31 07:16:05;;;;;;;3.92;1.88;;;2.60;99.90;;;;;;4959083;29;20216;-66
2022/01/31 07:18:33;;;;;;;2.42;2.10;;;2.70;99.90;;;;;;4958929;29;20216;-66
2022/01/31 07:21:00;;;;;;;2.80;2.17;;;2.70;99.90;;;;;;4958961;29;20211;-66
2022/01/31 07:23:37;;;;;;;2.38;2.28;;;2.70;99.90;;;;;;4959035;29;20247;-66
2022/01/31 07:26:04;;;;;;;3.22;1.98;;;2.70;99.90;;;;;;4959643;29;20243;-65
2022/01/31 07:28:31;;;;;;;1.75;1.65;;;2.70;99.90;;;;;;4959184;29;20227;-66
2022/01/31 07:30:58;;;;;;;1.42;1.33;;;2.70;99.90;;;;;;4959503;29;20254;-66
2022/01/31 07:33:26;;;;;;;1.70;1.38;;;2.70;99.90;;;;;;4958747;29;20336;-67
2022/01/31 07:35:53;;;;;;;1.60;1.50;;;2.70;99.90;;;;;;4958455;29;20200;-67
2022/01/31 07:38:21;;;;;;;1.80;1.50;;;2.70;99.90;;;;;;4958514;29;20200;-67
2022/01/31 07:40:51;;;;;;;1.65;1.55;;;2.70;99.90;;;;;;4958570;29;20258;-67
2022/01/31 07:43:18;;;;;;;1.55;1.45;;;2.60;99.90;;;;;;4958395;28;20220;-67
2022/01/31 07:45:45;;;;;;;3.40;1.95;;;2.60;99.90;;;;;;4958331;29;20208;-68
2022/01/31 07:48:11;;;;;;;1.67;1.10;;;2.50;99.90;;;;;;4958209;29;20284;-67
2022/01/31 07:50:40;;;;;;;1.60;1.50;;;2.50;99.90;;;;;;4958121;29;20239;-67
2022/01/31 07:53:07;;;;;;;1.40;1.30;;;2.50;99.90;;;;;;4957626;29;20310;-67
2022/01/31 07:55:34;;;;;;;1.85;1.55;;;2.40;99.90;;;;;;4958069;29;20295;-67
2022/01/31 07:58:01;;;;;;;1.85;1.63;;;2.40;99.90;;;;;;4957989;29;20294;-66
2022/01/31 08:00:29;;;;;;;1.52;1.52;;;2.40;99.90;;;;;;4957755;29;20731;-66
2022/01/31 08:02:56;;;;;;;1.80;1.70;;;2.40;99.90;;;;;;4957592;29;20696;-67
2022/01/31 08:05:23;;;;;;;1.90;1.38;;;2.50;99.90;;;;;;4957914;29;20221;-67
2022/01/31 08:07:51;;;;;;;3.03;2.13;;;2.50;99.90;;;;;;4957581;29;20298;-67
2022/01/31 08:10:18;;;;;;;2.08;1.90;;;2.50;99.90;;;;;;4957914;28;20238;-68
2022/01/31 08:12:46;;;;;;;1.90;1.80;;;2.40;99.90;;;;;;4957397;29;20259;-66
2022/01/31 08:15:21;;;;;;;2.05;1.38;;;2.40;99.90;;;;;;4957413;29;20288;-66
2022/01/31 08:17:48;;;;;;;1.40;1.30;;;2.40;99.90;;;;;;4957658;28;20184;-66
2022/01/31 08:20:15;;;;;;;1.70;1.58;;;2.40;99.90;;;;;;4957361;29;20694;-67
2022/01/31 08:22:42;;;;;;;1.20;1.20;;;2.40;99.90;;;;;;4957726;29;20251;-65
2022/01/31 08:25:14;;;;;;;1.17;1.13;;;2.40;99.90;;;;;;4957404;29;20639;-66
2022/01/31 08:27:42;;;;;;;1.38;1.20;;;2.40;99.90;;;;;;4957653;29;20314;-66
2022/01/31 08:30:14;;;;;;;1.30;1.27;;;2.40;99.90;;;;;;4957555;29;20208;-66
2022/01/31 08:32:46;;;;;;;0.90;0.90;;;2.30;99.90;;;;;;4957650;29;20235;-66
2022/01/31 08:37:58;;;;;;;1.10;1.10;;;2.30;99.90;;;;;;4957445;29;20187;-67
2022/01/31 08:40:27;;;;;;;1.20;1.20;;;2.30;99.90;;;;;;4957514;28;20240;-67
2022/01/31 08:42:54;;;;;;;1.15;1.10;;;2.30;99.90;;;;;;4957458;28;20266;-66
2022/01/31 08:45:21;;;;;;;0.88;0.88;;;2.30;99.90;;;;;;4957295;29;20212;-66
2022/01/31 08:47:48;;;;;;;2.75;1.00;;;2.30;99.90;;;;;;4957068;29;20663;-66
2022/01/31 08:50:14;;;;;;;0.95;0.95;;;2.30;99.90;;;;;;4956983;29;20206;-66
2022/01/31 08:52:41;;;;;;;1.13;1.13;;;2.30;99.90;;;;;;4956766;29;20698;-66
2022/01/31 08:55:11;;;;;;;1.00;1.00;;;2.40;99.90;;;;;;4957140;29;20290;-66
2022/01/31 08:57:40;;;;;;;1.05;1.05;;;2.40;99.90;;;;;;4958361;29;20535;-66
2022/01/31 09:00:08;;;;;;;0.90;0.90;;;2.40;99.90;;;;;;4957088;29;20291;-67
2022/01/31 09:02:40;;;;;;;1.45;1.15;;;2.40;99.90;;;;;;4956644;29;20775;-66
2022/01/31 09:05:08;;;;;;;0.90;0.90;;;2.40;99.90;;;;;;4956750;29;20185;-66
2022/01/31 09:07:35;;;;;;;0.90;0.90;;;2.40;99.90;;;;;;4956742;29;20300;-66
2022/01/31 09:10:02;;;;;;;0.80;0.80;;;2.50;99.90;;;;;;4956649;29;20571;-66
2022/01/31 09:12:32;;;;;;;0.73;0.73;;;2.50;99.90;;;;;;4956704;29;20263;-66
2022/01/31 09:15:00;;;;;;;0.90;0.90;;;2.50;99.90;;;;;;4957541;28;20294;-66
2022/01/31 09:17:27;;;;;;;0.80;0.80;;;2.60;99.90;;;;;;4957018;29;20235;-66
2022/01/31 09:19:54;;;;;;;0.95;0.70;;;2.60;99.90;;;;;;4956765;29;20208;-66
2022/01/31 09:22:21;;;;;;;0.68;0.68;;;2.60;99.90;;;;;;4956643;29;20234;-66
2022/01/31 09:24:50;;;;;;;0.85;0.80;;;2.60;99.90;;;;;;4956535;29;20529;-66
2022/01/31 09:27:17;;;;;;;1.02;0.80;;;2.60;99.90;;;;;;4957124;29;20192;-66
2022/01/31 09:29:44;;;;;;;0.60;0.60;;;2.70;99.90;;;;;;4956299;28;20203;-65
2022/01/31 09:32:13;;;;;;;0.60;0.60;;;2.80;99.90;;;;;;4956460;29;20318;-66
2022/01/31 09:34:40;;;;;;;0.60;0.60;;;2.80;99.90;;;;;;4956456;29;20208;-66
2022/01/31 09:37:08;;;;;;;0.77;0.77;;;3.00;99.90;;;;;;4956682;29;20214;-66
2022/01/31 09:39:35;;;;;;;0.70;0.70;;;3.00;99.90;;;;;;4956525;28;20215;-66
2022/01/31 09:42:04;;;;;;;0.70;0.70;;;2.90;99.90;;;;;;4956103;29;20246;-66
2022/01/31 09:44:44;;;;;;;0.68;0.68;;;2.90;99.90;;;;;;4956255;29;20639;-66
2022/01/31 09:47:21;;;;;;;0.70;0.70;;;2.80;99.90;;;;;;4956731;29;20278;-66
2022/01/31 09:49:48;;;;;;;1.33;1.33;;;2.70;99.90;;;;;;4956838;29;20641;-66
2022/01/31 09:52:16;;;;;;;1.40;1.40;;;2.70;99.90;;;;;;4956349;29;20238;-65
2022/01/31 09:54:47;;;;;;;3.00;1.60;;;2.80;99.90;;;;;;4956421;29;20200;-65
2022/01/31 09:57:14;;;;;;;1.30;1.30;;;2.80;99.90;;;;;;4956724;28;20632;-65
2022/01/31 09:59:41;;;;;;;1.05;1.05;;;2.80;99.90;;;;;;4956386;29;20290;-65
2022/01/31 10:02:10;;;;;;;1.15;1.13;;;2.80;99.90;;;;;;4956770;29;20226;-65
2022/01/31 10:04:43;;;;;;;1.40;1.20;;;2.80;99.90;;;;;;4955998;29;20216;-65
2022/01/31 10:07:10;;;;;;;1.20;1.10;;;2.80;99.90;;;;;;4956144;29;20188;-65
2022/01/31 10:09:37;;;;;;;1.20;1.20;;;2.70;99.90;;;;;;4956133;29;20219;-65
2022/01/31 10:12:07;;;;;;;0.90;0.90;;;2.70;99.90;;;;;;4955775;29;20263;-65
2022/01/31 10:17:26;;;;;;;0.90;0.90;;;2.70;99.90;;;;;;4956219;29;20552;-65
2022/01/31 10:19:56;;;;;;;0.80;0.80;;;2.70;99.90;;;;;;4955919;29;20291;-65
2022/01/31 10:22:25;;;;;;;0.70;0.70;;;2.60;99.90;;;;;;4955901;29;20233;-65
2022/01/31 10:24:53;;;;;;;0.90;0.90;;;2.50;99.90;;;;;;4955399;29;20211;-65
2022/01/31 10:27:22;;;;;;;0.95;0.90;;;2.40;99.90;;;;;;4955482;29;20702;-65
2022/01/31 10:29:52;;;;;;;1.00;1.00;;;2.30;99.90;;;;;;4956007;29;20204;-65
2022/01/31 10:32:26;;;;;;;1.00;0.73;;;2.20;99.90;;;;;;4955413;29;20567;-65
2022/01/31 10:34:57;;;;;;;2.78;0.85;;;2.10;99.90;;;;;;4955752;29;20192;-66
2022/01/31 10:37:25;;;;;;;0.88;0.80;;;2.00;99.90;;;;;;4956158;29;20296;-65
2022/01/31 10:45:45;;;;;;;0.60;0.60;;;2.10;99.90;;;;;;4960500;29;20259;-66
2022/01/31 10:54:07;;;;;;;0.60;0.60;;;2.30;99.90;;;;;;4959260;29;20314;-66
2022/01/31 10:56:38;;;;;;;0.70;0.70;;;2.40;99.90;;;;;;4959148;29;20557;-66
2022/01/31 10:59:07;;;;;;;0.85;0.70;;;2.40;99.90;;;;;;4959205;29;20218;-66
2022/01/31 11:01:34;;;;;;;0.80;0.80;;;2.60;99.90;;;;;;4958876;29;20710;-66
2022/01/31 11:04:04;;;;;;;0.70;0.70;;;2.70;99.90;;;;;;4958749;29;20307;-66
2022/01/31 11:06:33;;;;;;;0.88;0.88;;;2.80;99.90;;;;;;4958933;29;20240;-66
2022/01/31 11:09:09;;;;;;;2.83;0.82;;;2.90;99.90;;;;;;4958833;29;20567;-66
2022/01/31 11:11:37;;;;;;;0.80;0.80;;;3.00;99.90;;;;;;4958709;29;20298;-66
2022/01/31 11:14:05;;;;;;;0.70;0.70;;;3.10;99.90;;;;;;4959239;29;20238;-66
2022/01/31 11:16:32;;;;;;;0.85;0.80;;;3.20;99.90;;;;;;4959028;29;20207;-66
2022/01/31 11:19:03;;;;;;;0.80;0.80;;;3.20;99.90;;;;;;4959005;29;20242;-66
2022/01/31 11:21:35;;;;;;;0.80;0.80;;;3.30;99.90;;;;;;4958964;28;20279;-66
2022/01/31 11:24:04;;;;;;;0.95;0.95;;;3.30;99.90;;;;;;4958497;28;20256;-66
2022/01/31 11:26:37;;;;;;;5.15;1.40;;;3.30;99.90;;;;;;4958110;29;20208;-66
2022/01/31 11:29:07;;;;;;;1.20;1.10;;;3.30;99.90;;;;;;4958511;28;20208;-66
2022/01/31 11:31:36;;;;;;;0.90;0.90;;;3.30;99.90;;;;;;4958410;28;20683;-66
2022/01/31 11:34:05;;;;;;;1.60;1.00;;;3.30;99.90;;;;;;4958555;29;20231;-67
2022/01/31 11:36:36;;;;;;;1.80;1.08;;;3.30;99.90;;;;;;4958548;29;20308;-67
2022/01/31 11:39:08;;;;;;;3.22;0.90;;;3.40;99.90;;;;;;4958578;29;20195;-67
2022/01/31 11:41:37;;;;;;;1.67;1.45;;;3.40;99.90;;;;;;4958340;28;20196;-67
2022/01/31 11:44:16;;;;;;;0.90;0.90;;;3.40;99.90;;;;;;4958309;29;20726;-67
2022/01/31 11:46:43;;;;;;;2.10;1.13;;;3.40;99.90;;;;;;4958176;29;20194;-67
2022/01/31 11:49:13;;;;;;;1.73;0.80;;;3.50;99.90;;;;;;4958532;29;20215;-67
2022/01/31 11:52:01;;;;;;;0.70;0.70;;;3.40;99.90;;;;;;4957805;28;20239;-67
2022/01/31 11:54:28;;;;;;;1.25;0.75;;;3.60;99.90;;;;;;4958155;29;20212;-67
2022/01/31 11:56:55;;;;;;;1.00;0.80;;;3.60;99.90;;;;;;4958510;29;20200;-67
2022/01/31 11:59:23;;;;;;;2.97;0.90;;;3.80;99.90;;;;;;4958413;29;20196;-67
2022/01/31 12:01:52;;;;;;;0.98;0.90;;;3.80;99.90;;;;;;4958191;29;20297;-66
2022/01/31 12:04:23;;;;;;;2.05;0.90;;;3.90;99.90;;;;;;4958992;29;20541;-67
2022/01/31 12:06:51;;;;;;;1.90;0.80;;;4.10;99.90;;;;;;4958169;29;20199;-65
2022/01/31 12:09:21;;;;;;;1.92;1.00;;;4.40;99.90;;;;;;4957962;29;20208;-68
2022/01/31 12:12:03;;;;;;;0.85;0.85;;;4.70;99.90;;;;;;4958444;29;20200;-66
2022/01/31 12:14:44;;;;;;;2.22;0.98;;;4.80;99.90;;;;;;4958479;29;20676;-66
2022/01/31 12:17:51;;;;;;;0.85;0.85;;;4.80;99.90;;;;;;4958023;29;20649;-66
2022/01/31 12:23:35;;;;;;;0.70;0.70;;;4.90;99.90;;;;;;4957450;29;20216;-66
2022/01/31 12:26:04;;;;;;;0.73;0.70;;;4.90;99.90;;;;;;4957526;29;20698;-67
2022/01/31 12:28:38;;;;;;;0.98;0.85;;;4.80;99.90;;;;;;4957822;29;20279;-67
2022/01/31 12:31:28;;;;;;;0.73;0.73;;;4.70;99.90;;;;;;4957735;29;20286;-67
2022/01/31 12:33:55;;;;;;;0.85;0.70;;;4.60;99.90;;;;;;4957791;29;20314;-67
2022/01/31 12:36:50;;;;;;;0.68;0.68;;;4.60;99.90;;;;;;4957671;29;20232;-67
2022/01/31 12:39:56;;;;;;;0.98;0.75;;;4.50;99.90;;;;;;4957218;28;20208;-66
2022/01/31 12:42:51;;;;;;;0.55;0.55;;;4.40;99.90;;;;;;4957394;28;20224;-67
2022/01/31 12:45:21;;;;;;;1.73;0.70;;;4.30;99.90;;;;;;4957293;29;20199;-67
2022/01/31 12:48:19;;;;;;;0.50;0.50;;;4.40;99.90;;;;;;4957779;29;20199;-67
2022/01/31 12:51:01;;;;;;;0.70;0.70;;;4.30;99.90;;;;;;4957050;28;20195;-67
2022/01/31 12:53:54;;;;;;;1.65;0.63;;;4.30;99.90;;;;;;4957387;29;20258;-67
2022/01/31 12:56:30;;;;;;;1.30;0.75;;;4.30;99.90;;;;;;4957140;29;20192;-67
2022/01/31 12:59:03;;;;;;;0.70;0.70;;;4.40;99.90;;;;;;4957124;29;20283;-67
2022/01/31 13:01:32;;;;;;;0.57;0.57;;;4.50;99.90;;;;;;4957148;29;20188;-67
2022/01/31 13:04:01;;;;;;;2.45;0.70;;;4.60;99.90;;;;;;4956229;28;20227;-67
2022/01/31 13:06:30;;;;;;;0.50;0.50;;;4.60;99.90;;;;;;4956737;29;20295;-67
2022/01/31 13:08:58;;;;;;;0.70;0.70;;;4.60;99.90;;;;;;4956734;29;20211;-67
2022/01/31 13:11:27;;;;;;;0.70;0.70;;;4.60;99.90;;;;;;4957282;29;20204;-67
2022/01/31 13:14:07;;;;;;;0.73;0.73;;;4.50;99.90;;;;;;4956665;29;20585;-67
2022/01/31 13:16:43;;;;;;;0.70;0.70;;;4.40;99.90;;;;;;4956702;29;20554;-67
2022/01/31 13:19:15;;;;;;;0.80;0.80;;;4.20;99.90;;;;;;4957042;29;20550;-67
2022/01/31 13:21:42;;;;;;;1.60;0.98;;;4.10;99.90;;;;;;4956919;29;20292;-67
2022/01/31 13:24:10;;;;;;;1.05;0.90;;;4.00;99.90;;;;;;4956722;29;20315;-67
2022/01/31 13:26:56;;;;;;;0.95;0.95;;;3.90;99.90;;;;;;4956974;29;20184;-67
2022/01/31 13:29:29;;;;;;;1.17;1.00;;;3.60;99.90;;;;;;4956772;29;20195;-67
2022/01/31 13:31:56;;;;;;;1.00;1.00;;;3.50;99.90;;;;;;4956417;29;20278;-67
2022/01/31 13:34:41;;;;;;;1.02;0.85;;;3.40;99.90;;;;;;4956563;29;20235;-67
2022/01/31 13:37:41;;;;;;;0.80;0.80;;;3.40;99.90;;;;;;4956798;28;20253;-67
2022/01/31 13:40:12;;;;;;;1.52;0.90;;;3.50;99.90;;;;;;4956326;29;20235;-67
2022/01/31 13:42:43;;;;;;;1.30;0.75;;;3.60;99.90;;;;;;4956522;29;20278;-68
2022/01/31 13:45:22;;;;;;;2.47;1.00;;;3.70;99.90;;;;;;4956712;29;20211;-67
2022/01/31 13:47:54;;;;;;;0.90;0.90;;;3.70;99.90;;;;;;4957077;28;20192;-67
2022/01/31 13:50:25;;;;;;;2.05;1.15;;;3.70;99.90;;;;;;4956458;29;20279;-67
2022/01/31 13:53:02;;;;;;;1.90;0.80;;;3.70;99.90;;;;;;4956408;29;20283;-67
2022/01/31 13:55:32;;;;;;;1.77;1.20;;;3.70;99.90;;;;;;4955969;29;20623;-67
2022/01/31 13:58:02;;;;;;;2.17;1.20;;;3.70;99.90;;;;;;4956331;29;20215;-67
2022/01/31 14:00:33;;;;;;;0.90;0.90;;;3.70;99.90;;;;;;4955993;29;20294;-67
2022/01/31 14:03:10;;;;;;;1.73;0.98;;;3.70;99.90;;;;;;4955817;29;20703;-67
2022/01/31 14:05:41;;;;;;;3.38;1.00;;;3.70;99.90;;;;;;4956121;29;20183;-67
2022/01/31 14:08:09;;;;;;;1.00;1.00;;;3.60;99.90;;;;;;4956344;29;20190;-67
2022/01/31 14:10:38;;;;;;;1.75;0.93;;;3.50;99.90;;;;;;4956122;29;20231;-68
2022/01/31 14:13:09;;;;;;;0.80;0.80;;;3.50;99.90;;;;;;4955774;29;20318;-67
2022/01/31 14:15:46;;;;;;;0.70;0.70;;;3.50;99.90;;;;;;4956016;28;20208;-68
2022/01/31 14:18:15;;;;;;;0.70;0.70;;;3.50;99.90;;;;;;4956670;29;20192;-68
2022/01/31 14:20:43;;;;;;;0.95;0.80;;;3.50;99.90;;;;;;4955731;29;20204;-68
2022/01/31 14:23:11;;;;;;;0.70;0.70;;;3.40;99.90;;;;;;4955846;29;20234;-68
2022/01/31 14:25:44;;;;;;;0.80;0.80;;;3.30;99.90;;;;;;4956157;29;20191;-67
2022/01/31 14:28:13;;;;;;;0.57;0.57;;;3.30;99.90;;;;;;4955772;29;20195;-68
2022/01/31 14:30:51;;;;;;;1.05;1.00;;;3.30;99.90;;;;;;4955715;29;20234;-68
2022/01/31 14:33:21;;;;;;;0.70;0.70;;;3.20;99.90;;;;;;4955553;29;20230;-67
2022/01/31 14:35:48;;;;;;;0.80;0.80;;;3.10;99.90;;;;;;4955554;29;20566;-67
2022/01/31 14:38:21;;;;;;;0.95;0.80;;;3.10;99.90;;;;;;4955671;29;20274;-69
2022/01/31 14:49:21;;;;;;;1.35;0.98;;;3.00;99.90;;;;;;4956076;29;20563;-68
2022/01/31 14:51:51;;;;;;;1.15;1.15;;;2.90;99.90;;;;;;4955572;29;20184;-68
2022/01/31 14:54:19;;;;;;;2.40;0.98;;;2.90;99.90;;;;;;4955649;29;20567;-68
2022/01/31 14:56:47;;;;;;;1.10;1.02;;;3.00;99.90;;;;;;4955678;29;20570;-69
2022/01/31 14:59:15;;;;;;;3.30;1.23;;;3.00;99.90;;;;;;4955534;29;20212;-67
2022/01/31 15:01:43;;;;;;;1.15;0.90;;;3.10;99.90;;;;;;4955128;29;20575;-68
2022/01/31 15:04:20;;;;;;;0.65;0.65;;;3.10;99.90;;;;;;4955340;29;20223;-67
2022/01/31 15:06:48;;;;;;;1.27;1.17;;;3.10;99.90;;;;;;4955527;29;20210;-69
2022/01/31 15:09:15;;;;;;;1.77;0.98;;;3.10;99.90;;;;;;4954939;29;20295;-68
2022/01/31 15:11:43;;;;;;;1.10;1.08;;;3.10;99.90;;;;;;4955091;29;20615;-68
2022/01/31 15:14:10;;;;;;;1.20;1.15;;;3.10;99.90;;;;;;4954970;29;20679;-68
2022/01/31 15:16:40;;;;;;;3.53;1.10;;;3.10;99.90;;;;;;4955173;29;20641;-68
2022/01/31 15:19:07;;;;;;;1.83;1.25;;;3.10;99.90;;;;;;4955244;29;20247;-68
2022/01/31 15:21:34;;;;;;;1.50;1.40;;;3.10;99.90;;;;;;4954868;29;20302;-68
2022/01/31 15:24:02;;;;;;;2.58;1.30;;;3.10;99.90;;;;;;4955164;29;20248;-68
2022/01/31 15:26:29;;;;;;;1.35;1.08;;;3.00;99.90;;;;;;4955349;28;20204;-68
2022/01/31 15:28:57;;;;;;;1.42;1.33;;;3.00;99.90;;;;;;4958741;29;20204;-68
2022/01/31 15:31:25;;;;;;;1.52;1.00;;;2.90;99.90;;;;;;4958999;29;20208;-68
2022/01/31 15:33:53;;;;;;;0.90;0.90;;;2.90;99.90;;;;;;4958579;28;20315;-68
2022/01/31 15:36:21;;;;;;;1.00;0.98;;;2.70;99.90;;;;;;4959128;29;20668;-68
2022/01/31 15:38:51;;;;;;;1.25;1.25;;;2.60;99.90;;;;;;4958793;29;20208;-68
2022/01/31 15:41:18;;;;;;;1.13;1.08;;;2.40;99.90;;;;;;4958707;28;20204;-69
2022/01/31 15:43:47;;;;;;;2.40;1.05;;;2.20;99.90;;;;;;4958494;29;20224;-69
2022/01/31 15:46:13;;;;;;;0.82;0.80;;;2.10;99.90;;;;;;4958548;29;20212;-69
2022/01/31 15:48:40;;;;;;;1.08;0.80;;;1.90;99.90;;;;;;4958716;29;20228;-69
2022/01/31 15:51:11;;;;;;;0.80;0.80;;;1.90;99.90;;;;;;4958123;29;20668;-70
2022/01/31 15:53:38;;;;;;;1.02;0.90;;;1.80;99.90;;;;;;4958382;29;20667;-69
2022/01/31 15:56:08;;;;;;;1.10;1.10;;;1.80;99.90;;;;;;4958291;29;20227;-68
2022/01/31 15:58:35;;;;;;;0.93;0.90;;;1.70;99.90;;;;;;4957987;29;20617;-68
2022/01/31 16:01:08;;;;;;;1.88;0.93;;;1.70;99.90;;;;;;4957812;29;20212;-68
2022/01/31 16:03:35;;;;;;;0.95;0.95;;;1.70;99.90;;;;;;4957897;29;20243;-68
2022/01/31 16:06:02;;;;;;;1.10;1.10;;;1.70;99.90;;;;;;4957792;29;20196;-68
2022/01/31 16:08:31;;;;;;;0.80;0.80;;;1.60;99.90;;;;;;4958726;28;20223;-68
2022/01/31 16:10:57;;;;;;;1.85;0.70;;;1.60;99.90;;;;;;4958884;29;20216;-68
2022/01/31 16:13:24;;;;;;;1.85;0.93;;;1.70;99.90;;;;;;4957642;29;20318;-67
2022/01/31 16:15:52;;;;;;;1.90;1.10;;;1.60;99.90;;;;;;4957453;29;20231;-68
2022/01/31 16:18:20;;;;;;;0.93;0.90;;;1.60;99.90;;;;;;4957779;29;20247;-68
2022/01/31 16:20:48;;;;;;;0.80;0.80;;;1.60;99.90;;;;;;4957853;29;20263;-68
2022/01/31 16:23:15;;;;;;;1.27;1.10;;;1.60;99.90;;;;;;4957543;29;20801;-68
2022/01/31 16:25:44;;;;;;;2.30;0.80;;;1.60;99.90;;;;;;4957453;29;20184;-68
2022/01/31 16:28:17;;;;;;;0.85;0.85;;;1.60;99.90;;;;;;4959327;29;20212;-68
2022/01/31 16:30:45;;;;;;;1.40;1.00;;;1.60;99.90;;;;;;4961174;29;20208;-68
2022/01/31 16:33:12;;;;;;;2.33;0.93;;;1.60;99.90;;;;;;4961545;29;20282;-68
2022/01/31 16:35:40;;;;;;;1.05;0.73;;;1.70;99.90;;;;;;4959857;29;20337;-68
2022/01/31 16:38:11;;;;;;;0.95;0.95;;;1.70;99.90;;;;;;4959095;28;20208;-68
2022/01/31 16:40:39;;;;;;;1.63;1.00;;;1.70;99.90;;;;;;4958195;29;20318;-68
2022/01/31 16:43:07;;;;;;;1.52;1.10;;;1.70;99.90;;;;;;4957214;29;20262;-69
2022/01/31 16:45:35;;;;;;;0.93;0.93;;;1.70;99.90;;;;;;4957417;28;20210;-68
2022/01/31 16:48:05;;;;;;;1.13;1.13;;;1.70;99.90;;;;;;4957071;29;20246;-68
2022/01/31 16:50:32;;;;;;;0.70;0.70;;;1.60;99.90;;;;;;4957219;28;20204;-66
2022/01/31 16:53:01;;;;;;;1.45;1.10;;;1.70;99.90;;;;;;4957090;29;20220;-67
2022/01/31 16:55:29;;;;;;;2.53;1.13;;;1.70;99.90;;;;;;4956806;29;20299;-71
2022/01/31 16:57:58;;;;;;;1.92;0.90;;;1.80;99.90;;;;;;4957160;29;20295;-70
2022/01/31 17:00:27;;;;;;;0.75;0.73;;;1.80;99.90;;;;;;4957130;29;20208;-71
2022/01/31 17:02:55;;;;;;;1.70;1.20;;;1.80;99.90;;;;;;4956666;29;20739;-70
2022/01/31 17:05:22;;;;;;;1.00;1.00;;;1.80;99.90;;;;;;4956969;29;20200;-70
2022/01/31 17:07:50;;;;;;;1.35;0.90;;;1.80;99.90;;;;;;4956939;29;20203;-70
2022/01/31 17:10:17;;;;;;;0.98;0.98;;;1.80;99.90;;;;;;4956850;29;20204;-70
2022/01/31 17:12:44;;;;;;;0.93;0.90;;;1.70;99.90;;;;;;4956363;28;20610;-70
2022/01/31 17:15:14;;;;;;;1.00;1.00;;;1.70;99.90;;;;;;4956985;29;20220;-70
2022/01/31 17:17:45;;;;;;;0.90;0.90;;;1.70;99.90;;;;;;4956596;29;20244;-70
2022/01/31 17:20:13;;;;;;;0.77;0.77;;;1.70;99.90;;;;;;4956708;29;20188;-70
2022/01/31 17:22:40;;;;;;;1.00;0.80;;;1.70;99.90;;;;;;4956804;29;20231;-69
2022/01/31 17:25:09;;;;;;;1.08;1.08;;;1.70;99.90;;;;;;4956613;29;20204;-69
2022/01/31 17:27:36;;;;;;;0.95;0.95;;;1.70;99.90;;;;;;4956592;29;20206;-69
2022/01/31 17:30:05;;;;;;;0.88;0.88;;;1.60;99.90;;;;;;4956534;29;20206;-69
2022/01/31 17:32:32;;;;;;;0.90;0.90;;;1.60;99.90;;;;;;4956166;28;20634;-70
2022/01/31 17:35:02;;;;;;;1.25;1.15;;;1.60;99.90;;;;;;4956335;29;20224;-69
2022/01/31 17:37:29;;;;;;;0.80;0.80;;;1.60;99.90;;;;;;4956465;29;20200;-71
2022/01/31 17:39:56;;;;;;;0.90;0.90;;;1.60;99.90;;;;;;4956389;29;20218;-72
2022/01/31 17:42:23;;;;;;;0.85;0.85;;;1.60;99.90;;;;;;4956091;28;20751;-71
2022/01/31 17:44:57;;;;;;;1.13;0.93;;;1.50;99.90;;;;;;4956600;29;20192;-71
2022/01/31 17:47:25;;;;;;;0.80;0.80;;;1.50;99.90;;;;;;4956416;29;20191;-71
2022/01/31 17:49:51;;;;;;;0.60;0.60;;;1.50;99.90;;;;;;4955981;28;20714;-71
2022/01/31 17:52:20;;;;;;;0.90;0.90;;;1.50;99.90;;;;;;4956131;29;20654;-71
2022/01/31 17:54:47;;;;;;;0.95;0.80;;;1.50;99.90;;;;;;4956575;29;20228;-72
2022/01/31 17:57:15;;;;;;;0.82;0.82;;;1.50;99.90;;;;;;4956647;28;20198;-71
2022/01/31 17:59:41;;;;;;;1.73;0.90;;;1.50;99.90;;;;;;4956135;29;20295;-70
2022/01/31 18:02:09;;;;;;;0.80;0.80;;;1.50;99.90;;;;;;4956092;29;20230;-71
2022/01/31 18:04:36;;;;;;;0.68;0.68;;;1.50;99.90;;;;;;4956461;29;20299;-71
2022/01/31 18:07:03;;;;;;;1.25;1.00;;;1.50;99.90;;;;;;4955804;29;20208;-70
2022/01/31 18:09:31;;;;;;;0.80;0.80;;;1.50;99.90;;;;;;4956087;28;20208;-70
2022/01/31 18:11:58;;;;;;;0.80;0.80;;;1.40;99.90;;;;;;4956081;29;20200;-70
2022/01/31 18:14:25;;;;;;;0.77;0.77;;;1.40;99.90;;;;;;4955926;29;20203;-70
2022/01/31 18:16:51;;;;;;;0.88;0.88;;;1.40;99.90;;;;;;4955660;29;20635;-70
2022/01/31 18:19:18;;;;;;;1.73;0.85;;;1.40;99.90;;;;;;4955611;29;20689;-71
2022/01/31 18:21:45;;;;;;;0.98;0.98;;;1.40;99.90;;;;;;4955689;29;20200;-71
2022/01/31 18:24:12;;;;;;;1.15;1.10;;;1.30;99.90;;;;;;4955856;29;20251;-71
2022/01/31 18:26:41;;;;;;;1.02;1.00;;;1.30;99.90;;;;;;4955701;29;20291;-71
2022/01/31 18:29:08;;;;;;;1.00;1.00;;;1.30;99.90;;;;;;4955777;29;20216;-71
2022/01/31 18:31:34;;;;;;;0.95;0.95;;;1.20;99.90;;;;;;4955760;29;20299;-71
2022/01/31 18:34:02;;;;;;;0.70;0.70;;;1.20;99.90;;;;;;4955458;29;20315;-71
2022/01/31 18:36:28;;;;;;;0.82;0.82;;;1.20;99.90;;;;;;4955637;29;20271;-71